sensor_id;sensor_type;location;lat;lon;timestamp;pressure;altitude;pressure_sealevel;temperature;humidity
71149;BME280;59072;42.144;25.200;2023-03-02T00:00:55;100694.00;;;5.38;100.00
71149;BME280;59072;42.144;25.200;2023-03-02T00:03:23;100688.41;;;5.33;100.00
71149;BME280;59072;42.144;25.200;2023-03-02T00:05:49;100667.41;;;5.32;100.00
71149;BME280;59072;42.144;25.200;2023-03-02T00:08:16;100666.69;;;5.54;100.00
71149;BME280;59072;42.144;25.200;2023-03-02T00:10:43;100683.84;;;5.67;100.00
71149;BME280;59072;42.144;25.200;2023-03-02T00:13:11;100686.50;;;5.58;100.00
71149;BME280;59072;42.144;25.200;2023-03-02T00:15:38;100661.75;;;5.43;100.00
71149;BME280;59072;42.144;25.200;2023-03-02T00:18:03;100684.63;;;5.75;100.00
71149;BME280;59072;42.144;25.200;2023-03-02T00:20:29;100682.56;;;5.54;100.00
71149;BME280;59072;42.144;25.200;2023-03-02T00:22:54;100678.59;;;5.50;100.00
71149;BME280;59072;42.144;25.200;2023-03-02T00:25:20;100680.91;;;5.45;100.00
71149;BME280;59072;42.144;25.200;2023-03-02T00:27:47;100674.94;;;5.51;100.00
71149;BME280;59072;42.144;25.200;2023-03-02T00:30:14;100657.75;;;5.47;100.00
71149;BME280;59072;42.144;25.200;2023-03-02T00:32:39;100667.34;;;5.56;100.00
71149;BME280;59072;42.144;25.200;2023-03-02T00:35:05;100673.50;;;5.40;100.00
71149;BME280;59072;42.144;25.200;2023-03-02T00:37:31;100673.47;;;5.49;100.00
71149;BME280;59072;42.144;25.200;2023-03-02T00:39:56;100682.34;;;5.72;100.00
71149;BME280;59072;42.144;25.200;2023-03-02T00:42:22;100681.44;;;5.80;100.00
71149;BME280;59072;42.144;25.200;2023-03-02T00:44:48;100668.22;;;5.80;100.00
71149;BME280;59072;42.144;25.200;2023-03-02T00:47:16;100681.16;;;5.75;100.00
71149;BME280;59072;42.144;25.200;2023-03-02T00:49:41;100656.75;;;5.56;100.00
71149;BME280;59072;42.144;25.200;2023-03-02T00:52:14;100651.31;;;5.58;100.00
71149;BME280;59072;42.144;25.200;2023-03-02T00:54:40;100654.09;;;5.56;100.00
71149;BME280;59072;42.144;25.200;2023-03-02T00:57:05;100664.81;;;5.63;100.00
71149;BME280;59072;42.144;25.200;2023-03-02T00:59:31;100651.50;;;5.48;100.00
71149;BME280;59072;42.144;25.200;2023-03-02T01:02:02;100671.59;;;5.66;100.00
71149;BME280;59072;42.144;25.200;2023-03-02T01:04:36;100650.50;;;5.41;100.00
71149;BME280;59072;42.144;25.200;2023-03-02T01:07:10;100663.97;;;5.31;100.00
71149;BME280;59072;42.144;25.200;2023-03-02T01:09:37;100652.22;;;5.26;100.00
71149;BME280;59072;42.144;25.200;2023-03-02T01:12:04;100674.31;;;5.41;100.00
71149;BME280;59072;42.144;25.200;2023-03-02T01:14:34;100661.41;;;5.46;100.00
71149;BME280;59072;42.144;25.200;2023-03-02T01:16:59;100663.13;;;5.31;100.00
71149;BME280;59072;42.144;25.200;2023-03-02T01:19:25;100672.06;;;5.30;100.00
71149;BME280;59072;42.144;25.200;2023-03-02T01:21:50;100651.84;;;5.37;100.00
71149;BME280;59072;42.144;25.200;2023-03-02T01:24:15;100675.63;;;5.45;100.00
71149;BME280;59072;42.144;25.200;2023-03-02T01:26:41;100672.28;;;5.59;100.00
71149;BME280;59072;42.144;25.200;2023-03-02T01:29:06;100657.38;;;5.67;100.00
71149;BME280;59072;42.144;25.200;2023-03-02T01:31:32;100661.78;;;5.82;100.00
71149;BME280;59072;42.144;25.200;2023-03-02T01:33:57;100652.97;;;5.51;100.00
71149;BME280;59072;42.144;25.200;2023-03-02T01:36:23;100649.66;;;5.49;100.00
71149;BME280;59072;42.144;25.200;2023-03-02T01:38:49;100665.00;;;5.61;100.00
71149;BME280;59072;42.144;25.200;2023-03-02T01:41:15;100671.59;;;5.66;100.00
71149;BME280;59072;42.144;25.200;2023-03-02T01:43:41;100652.09;;;5.67;100.00
71149;BME280;59072;42.144;25.200;2023-03-02T01:48:50;100676.75;;;5.59;100.00
71149;BME280;59072;42.144;25.200;2023-03-02T01:51:22;100647.88;;;5.41;100.00
71149;BME280;59072;42.144;25.200;2023-03-02T01:54:07;100650.47;;;5.49;100.00
71149;BME280;59072;42.144;25.200;2023-03-02T01:56:37;100647.22;;;5.39;100.00
71149;BME280;59072;42.144;25.200;2023-03-02T01:59:11;100661.69;;;5.59;100.00
71149;BME280;59072;42.144;25.200;2023-03-02T02:01:42;100663.00;;;5.63;100.00
71149;BME280;59072;42.144;25.200;2023-03-02T02:04:09;100637.88;;;5.59;100.00
71149;BME280;59072;42.144;25.200;2023-03-02T02:06:40;100655.53;;;5.67;100.00
71149;BME280;59072;42.144;25.200;2023-03-02T02:09:09;100645.78;;;5.68;100.00
71149;BME280;59072;42.144;25.200;2023-03-02T02:11:37;100638.88;;;5.58;100.00
71149;BME280;59072;42.144;25.200;2023-03-02T02:14:05;100637.59;;;5.54;100.00
71149;BME280;59072;42.144;25.200;2023-03-02T02:16:32;100639.19;;;5.63;100.00
71149;BME280;59072;42.144;25.200;2023-03-02T02:18:58;100640.16;;;5.71;100.00
71149;BME280;59072;42.144;25.200;2023-03-02T02:21:25;100637.94;;;5.82;100.00
71149;BME280;59072;42.144;25.200;2023-03-02T02:26:50;100654.13;;;5.88;100.00
71149;BME280;59072;42.144;25.200;2023-03-02T02:29:25;100637.06;;;5.90;100.00
71149;BME280;59072;42.144;25.200;2023-03-02T02:31:53;100657.91;;;5.93;100.00
71149;BME280;59072;42.144;25.200;2023-03-02T02:34:28;100651.03;;;5.76;100.00
71149;BME280;59072;42.144;25.200;2023-03-02T02:36:59;100630.56;;;5.70;100.00
71149;BME280;59072;42.144;25.200;2023-03-02T02:39:30;100662.47;;;5.76;100.00
71149;BME280;59072;42.144;25.200;2023-03-02T02:41:59;100637.84;;;5.68;100.00
71149;BME280;59072;42.144;25.200;2023-03-02T02:44:26;100650.19;;;5.83;100.00
71149;BME280;59072;42.144;25.200;2023-03-02T02:46:53;100624.19;;;5.56;100.00
71149;BME280;59072;42.144;25.200;2023-03-02T02:49:30;100653.09;;;5.57;100.00
71149;BME280;59072;42.144;25.200;2023-03-02T02:51:59;100639.44;;;5.46;100.00
71149;BME280;59072;42.144;25.200;2023-03-02T02:54:25;100640.53;;;5.59;100.00
71149;BME280;59072;42.144;25.200;2023-03-02T02:56:56;100650.56;;;5.72;100.00
71149;BME280;59072;42.144;25.200;2023-03-02T02:59:26;100644.34;;;5.57;100.00
71149;BME280;59072;42.144;25.200;2023-03-02T03:01:54;100641.78;;;5.72;100.00
71149;BME280;59072;42.144;25.200;2023-03-02T03:04:24;100639.50;;;5.69;100.00
71149;BME280;59072;42.144;25.200;2023-03-02T03:09:15;100641.13;;;5.70;100.00
71149;BME280;59072;42.144;25.200;2023-03-02T03:11:42;100618.63;;;5.42;100.00
71149;BME280;59072;42.144;25.200;2023-03-02T03:14:11;100639.56;;;5.52;100.00
71149;BME280;59072;42.144;25.200;2023-03-02T03:16:39;100636.59;;;5.47;100.00
71149;BME280;59072;42.144;25.200;2023-03-02T03:19:12;100634.28;;;5.52;100.00
71149;BME280;59072;42.144;25.200;2023-03-02T03:21:40;100611.72;;;5.33;100.00
71149;BME280;59072;42.144;25.200;2023-03-02T03:24:06;100630.56;;;5.30;100.00
71149;BME280;59072;42.144;25.200;2023-03-02T03:26:31;100625.69;;;5.50;100.00
71149;BME280;59072;42.144;25.200;2023-03-02T03:28:59;100607.97;;;5.19;100.00
71149;BME280;59072;42.144;25.200;2023-03-02T03:31:26;100621.06;;;5.52;100.00
71149;BME280;59072;42.144;25.200;2023-03-02T03:33:53;100628.19;;;5.52;100.00
71149;BME280;59072;42.144;25.200;2023-03-02T03:36:19;100624.91;;;5.41;100.00
71149;BME280;59072;42.144;25.200;2023-03-02T03:38:45;100618.09;;;5.47;100.00
71149;BME280;59072;42.144;25.200;2023-03-02T03:41:11;100627.00;;;5.54;100.00
71149;BME280;59072;42.144;25.200;2023-03-02T03:43:37;100608.06;;;5.34;100.00
71149;BME280;59072;42.144;25.200;2023-03-02T03:46:02;100618.47;;;5.36;100.00
71149;BME280;59072;42.144;25.200;2023-03-02T03:48:28;100620.09;;;5.37;100.00
71149;BME280;59072;42.144;25.200;2023-03-02T03:50:56;100602.00;;;5.26;100.00
71149;BME280;59072;42.144;25.200;2023-03-02T03:53:22;100622.94;;;5.75;100.00
71149;BME280;59072;42.144;25.200;2023-03-02T03:55:47;100611.88;;;5.32;100.00
71149;BME280;59072;42.144;25.200;2023-03-02T03:58:14;100629.31;;;5.49;100.00
71149;BME280;59072;42.144;25.200;2023-03-02T04:00:40;100634.47;;;5.42;100.00
71149;BME280;59072;42.144;25.200;2023-03-02T04:03:05;100635.53;;;5.33;100.00
71149;BME280;59072;42.144;25.200;2023-03-02T04:05:31;100620.97;;;5.21;100.00
71149;BME280;59072;42.144;25.200;2023-03-02T04:07:57;100631.31;;;5.47;100.00
71149;BME280;59072;42.144;25.200;2023-03-02T04:10:26;100633.66;;;5.42;100.00
71149;BME280;59072;42.144;25.200;2023-03-02T04:12:52;100621.66;;;5.15;100.00
71149;BME280;59072;42.144;25.200;2023-03-02T04:15:18;100621.03;;;5.04;100.00
71149;BME280;59072;42.144;25.200;2023-03-02T04:17:43;100634.03;;;5.22;100.00
71149;BME280;59072;42.144;25.200;2023-03-02T04:20:11;100610.41;;;5.21;100.00
71149;BME280;59072;42.144;25.200;2023-03-02T04:22:42;100609.88;;;5.34;100.00
71149;BME280;59072;42.144;25.200;2023-03-02T04:25:08;100624.91;;;5.41;100.00
71149;BME280;59072;42.144;25.200;2023-03-02T04:27:33;100630.56;;;5.30;100.00
71149;BME280;59072;42.144;25.200;2023-03-02T04:30:02;100631.25;;;5.24;100.00
71149;BME280;59072;42.144;25.200;2023-03-02T04:32:28;100605.59;;;5.24;100.00
71149;BME280;59072;42.144;25.200;2023-03-02T04:34:53;100632.97;;;5.48;100.00
71149;BME280;59072;42.144;25.200;2023-03-02T04:37:18;100609.38;;;5.38;100.00
71149;BME280;59072;42.144;25.200;2023-03-02T04:39:44;100625.38;;;5.45;100.00
71149;BME280;59072;42.144;25.200;2023-03-02T04:42:14;100617.44;;;5.45;100.00
71149;BME280;59072;42.144;25.200;2023-03-02T04:44:39;100628.50;;;5.49;100.00
71149;BME280;59072;42.144;25.200;2023-03-02T04:47:08;100632.00;;;5.41;100.00
71149;BME280;59072;42.144;25.200;2023-03-02T04:49:34;100627.66;;;5.56;100.00
71149;BME280;59072;42.144;25.200;2023-03-02T04:51:59;100641.03;;;5.55;100.00
71149;BME280;59072;42.144;25.200;2023-03-02T04:54:25;100638.06;;;5.58;100.00
71149;BME280;59072;42.144;25.200;2023-03-02T04:56:52;100633.94;;;5.55;100.00
71149;BME280;59072;42.144;25.200;2023-03-02T04:59:20;100640.34;;;5.61;100.00
71149;BME280;59072;42.144;25.200;2023-03-02T05:01:49;100643.69;;;5.55;100.00
71149;BME280;59072;42.144;25.200;2023-03-02T05:04:15;100625.00;;;5.56;100.00
71149;BME280;59072;42.144;25.200;2023-03-02T05:06:43;100647.47;;;5.60;100.00
71149;BME280;59072;42.144;25.200;2023-03-02T05:09:09;100637.22;;;5.57;100.00
71149;BME280;59072;42.144;25.200;2023-03-02T05:11:34;100626.72;;;5.41;100.00
71149;BME280;59072;42.144;25.200;2023-03-02T05:14:03;100651.09;;;5.59;100.00
71149;BME280;59072;42.144;25.200;2023-03-02T05:16:34;100636.53;;;5.63;100.00
71149;BME280;59072;42.144;25.200;2023-03-02T05:19:00;100666.97;;;5.59;100.00
71149;BME280;59072;42.144;25.200;2023-03-02T05:21:26;100660.66;;;5.69;100.00
71149;BME280;59072;42.144;25.200;2023-03-02T05:23:52;100647.13;;;5.63;100.00
71149;BME280;59072;42.144;25.200;2023-03-02T05:26:18;100650.13;;;5.60;100.00
71149;BME280;59072;42.144;25.200;2023-03-02T05:28:44;100642.91;;;5.46;100.00
71149;BME280;59072;42.144;25.200;2023-03-02T05:31:16;100650.16;;;5.52;100.00
71149;BME280;59072;42.144;25.200;2023-03-02T05:33:42;100665.97;;;5.69;100.00
71149;BME280;59072;42.144;25.200;2023-03-02T05:36:07;100647.13;;;5.63;100.00
71149;BME280;59072;42.144;25.200;2023-03-02T05:38:33;100667.75;;;5.76;100.00
71149;BME280;59072;42.144;25.200;2023-03-02T05:41:01;100668.91;;;5.74;100.00
71149;BME280;59072;42.144;25.200;2023-03-02T05:43:27;100657.06;;;5.61;100.00
71149;BME280;59072;42.144;25.200;2023-03-02T05:45:52;100677.13;;;5.87;100.00
71149;BME280;59072;42.144;25.200;2023-03-02T05:48:20;100657.00;;;5.70;100.00
71149;BME280;59072;42.144;25.200;2023-03-02T05:50:45;100685.88;;;5.96;100.00
71149;BME280;59072;42.144;25.200;2023-03-02T05:53:10;100681.16;;;5.75;100.00
71149;BME280;59072;42.144;25.200;2023-03-02T05:55:36;100663.91;;;5.48;100.00
71149;BME280;59072;42.144;25.200;2023-03-02T05:58:03;100654.19;;;5.32;100.00
71149;BME280;59072;42.144;25.200;2023-03-02T06:00:29;100685.53;;;5.51;100.00
71149;BME280;59072;42.144;25.200;2023-03-02T06:02:55;100696.41;;;5.64;100.00
71149;BME280;59072;42.144;25.200;2023-03-02T06:05:20;100677.28;;;5.46;100.00
71149;BME280;59072;42.144;25.200;2023-03-02T06:07:47;100698.47;;;5.46;100.00
71149;BME280;59072;42.144;25.200;2023-03-02T06:10:13;100694.16;;;5.37;100.00
71149;BME280;59072;42.144;25.200;2023-03-02T06:12:39;100688.38;;;5.50;100.00
71149;BME280;59072;42.144;25.200;2023-03-02T06:15:05;100673.97;;;5.52;100.00
71149;BME280;59072;42.144;25.200;2023-03-02T06:17:31;100680.63;;;5.40;100.00
71149;BME280;59072;42.144;25.200;2023-03-02T06:19:57;100676.25;;;5.55;100.00
71149;BME280;59072;42.144;25.200;2023-03-02T06:22:22;100678.56;;;5.58;100.00
71149;BME280;59072;42.144;25.200;2023-03-02T06:24:47;100687.13;;;5.69;100.00
71149;BME280;59072;42.144;25.200;2023-03-02T06:27:13;100693.78;;;5.56;100.00
71149;BME280;59072;42.144;25.200;2023-03-02T06:29:39;100695.59;;;5.64;100.00
71149;BME280;59072;42.144;25.200;2023-03-02T06:32:05;100688.84;;;5.53;100.00
71149;BME280;59072;42.144;25.200;2023-03-02T06:34:33;100706.84;;;5.66;100.00
71149;BME280;59072;42.144;25.200;2023-03-02T06:36:58;100680.53;;;5.64;100.00
71149;BME280;59072;42.144;25.200;2023-03-02T06:39:24;100690.13;;;5.57;100.00
71149;BME280;59072;42.144;25.200;2023-03-02T06:41:52;100680.88;;;5.61;100.00
71149;BME280;59072;42.144;25.200;2023-03-02T06:44:17;100714.41;;;5.69;100.00
71149;BME280;59072;42.144;25.200;2023-03-02T06:46:43;100699.66;;;5.83;100.00
71149;BME280;59072;42.144;25.200;2023-03-02T06:49:10;100713.59;;;5.69;100.00
71149;BME280;59072;42.144;25.200;2023-03-02T06:51:36;100701.97;;;5.78;100.00
71149;BME280;59072;42.144;25.200;2023-03-02T06:54:03;100695.38;;;5.74;100.00
71149;BME280;59072;42.144;25.200;2023-03-02T06:56:32;100716.22;;;5.77;100.00
71149;BME280;59072;42.144;25.200;2023-03-02T06:58:57;100695.06;;;5.69;100.00
71149;BME280;59072;42.144;25.200;2023-03-02T07:01:22;100698.53;;;5.69;100.00
71149;BME280;59072;42.144;25.200;2023-03-02T07:03:48;100712.22;;;5.81;100.00
71149;BME280;59072;42.144;25.200;2023-03-02T07:06:13;100699.13;;;5.96;100.00
71149;BME280;59072;42.144;25.200;2023-03-02T07:08:39;100719.47;;;5.95;100.00
71149;BME280;59072;42.144;25.200;2023-03-02T07:11:08;100714.47;;;5.92;100.00
71149;BME280;59072;42.144;25.200;2023-03-02T07:13:35;100722.78;;;5.97;100.00
71149;BME280;59072;42.144;25.200;2023-03-02T07:16:06;100711.53;;;5.87;100.00
71149;BME280;59072;42.144;25.200;2023-03-02T07:18:31;100694.34;;;5.83;100.00
71149;BME280;59072;42.144;25.200;2023-03-02T07:20:57;100702.97;;;5.77;100.00
71149;BME280;59072;42.144;25.200;2023-03-02T07:23:22;100726.13;;;5.83;100.00
71149;BME280;59072;42.144;25.200;2023-03-02T07:25:47;100721.13;;;5.88;100.00
71149;BME280;59072;42.144;25.200;2023-03-02T07:28:13;100717.97;;;5.93;100.00
71149;BME280;59072;42.144;25.200;2023-03-02T07:30:38;100705.63;;;5.77;100.00
71149;BME280;59072;42.144;25.200;2023-03-02T07:33:04;100721.44;;;5.93;100.00
71149;BME280;59072;42.144;25.200;2023-03-02T07:35:29;100721.44;;;5.93;100.00
71149;BME280;59072;42.144;25.200;2023-03-02T07:37:55;100714.09;;;5.72;100.00
71149;BME280;59072;42.144;25.200;2023-03-02T07:40:20;100724.09;;;5.93;100.00
71149;BME280;59072;42.144;25.200;2023-03-02T07:42:45;100728.06;;;5.97;100.00
71149;BME280;59072;42.144;25.200;2023-03-02T07:45:11;100710.22;;;5.83;100.00
71149;BME280;59072;42.144;25.200;2023-03-02T07:47:39;100725.06;;;5.92;100.00
71149;BME280;59072;42.144;25.200;2023-03-02T07:50:04;100705.88;;;5.90;100.00
71149;BME280;59072;42.144;25.200;2023-03-02T07:52:30;100694.41;;;5.67;100.00
71149;BME280;59072;42.144;25.200;2023-03-02T07:54:56;100725.72;;;6.02;100.00
71149;BME280;59072;42.144;25.200;2023-03-02T07:57:21;100699.66;;;5.83;100.00
71149;BME280;59072;42.144;25.200;2023-03-02T07:59:47;100713.38;;;5.87;100.00
71149;BME280;59072;42.144;25.200;2023-03-02T08:02:14;100709.28;;;6.15;100.00
71149;BME280;59072;42.144;25.200;2023-03-02T08:04:40;100717.59;;;6.04;100.00
71149;BME280;59072;42.144;25.200;2023-03-02T08:07:05;100720.34;;;6.19;100.00
71149;BME280;59072;42.144;25.200;2023-03-02T08:09:31;100705.91;;;5.82;100.00
71149;BME280;59072;42.144;25.200;2023-03-02T08:11:56;100716.09;;;6.10;100.00
71149;BME280;59072;42.144;25.200;2023-03-02T08:14:22;100702.41;;;5.98;100.00
71149;BME280;59072;42.144;25.200;2023-03-02T08:16:47;100710.03;;;5.93;100.00
71149;BME280;59072;42.144;25.200;2023-03-02T08:19:13;100717.28;;;6.07;100.00
71149;BME280;59072;42.144;25.200;2023-03-02T08:21:38;100709.00;;;6.02;100.00
71149;BME280;59072;42.144;25.200;2023-03-02T08:24:04;100714.81;;;6.29;100.00
71149;BME280;59072;42.144;25.200;2023-03-02T08:26:30;100733.53;;;6.27;100.00
71149;BME280;59072;42.144;25.200;2023-03-02T08:28:55;100706.25;;;5.95;100.00
71149;BME280;59072;42.144;25.200;2023-03-02T08:31:21;100716.13;;;6.01;100.00
71149;BME280;59072;42.144;25.200;2023-03-02T08:33:46;100718.75;;;6.10;100.00
71149;BME280;59072;42.144;25.200;2023-03-02T08:36:14;100720.56;;;6.09;100.00
71149;BME280;59072;42.144;25.200;2023-03-02T08:38:40;100706.38;;;5.94;100.00
71149;BME280;59072;42.144;25.200;2023-03-02T08:41:08;100704.19;;;6.06;100.00
71149;BME280;59072;42.144;25.200;2023-03-02T08:43:35;100693.28;;;6.00;100.00
71149;BME280;59072;42.144;25.200;2023-03-02T08:46:02;100704.81;;;6.16;100.00
71149;BME280;59072;42.144;25.200;2023-03-02T08:48:28;100720.69;;;6.16;100.00
71149;BME280;59072;42.144;25.200;2023-03-02T08:50:59;100716.75;;;6.12;100.00
71149;BME280;59072;42.144;25.200;2023-03-02T08:53:27;100711.63;;;6.10;100.00
71149;BME280;59072;42.144;25.200;2023-03-02T08:55:52;100693.03;;;6.18;100.00
71149;BME280;59072;42.144;25.200;2023-03-02T08:58:20;100710.13;;;6.39;100.00
71149;BME280;59072;42.144;25.200;2023-03-02T09:00:46;100694.66;;;6.28;100.00
71149;BME280;59072;42.144;25.200;2023-03-02T09:03:12;100707.03;;;6.27;100.00
71149;BME280;59072;42.144;25.200;2023-03-02T09:05:37;100690.69;;;6.23;100.00
71149;BME280;59072;42.144;25.200;2023-03-02T09:08:03;100702.41;;;6.29;100.00
71149;BME280;59072;42.144;25.200;2023-03-02T09:10:29;100700.72;;;6.36;100.00
71149;BME280;59072;42.144;25.200;2023-03-02T09:12:54;100681.41;;;6.51;100.00
71149;BME280;59072;42.144;25.200;2023-03-02T09:15:20;100690.66;;;6.32;100.00
71149;BME280;59072;42.144;25.200;2023-03-02T09:17:45;100691.03;;;6.43;100.00
71149;BME280;59072;42.144;25.200;2023-03-02T09:20:10;100690.97;;;6.60;100.00
71149;BME280;59072;42.144;25.200;2023-03-02T09:22:36;100681.09;;;6.46;100.00
71149;BME280;59072;42.144;25.200;2023-03-02T09:25:03;100702.72;;;6.57;100.00
71149;BME280;59072;42.144;25.200;2023-03-02T09:27:29;100685.66;;;6.60;100.00
71149;BME280;59072;42.144;25.200;2023-03-02T09:29:55;100681.75;;;6.48;100.00
71149;BME280;59072;42.144;25.200;2023-03-02T09:32:20;100682.22;;;6.51;100.00
71149;BME280;59072;42.144;25.200;2023-03-02T09:34:46;100694.47;;;6.52;100.00
71149;BME280;59072;42.144;25.200;2023-03-02T09:37:11;100691.03;;;6.43;100.00
71149;BME280;59072;42.144;25.200;2023-03-02T09:39:37;100693.59;;;6.37;100.00
71149;BME280;59072;42.144;25.200;2023-03-02T09:42:13;100675.97;;;6.21;100.00
71149;BME280;59072;42.144;25.200;2023-03-02T09:47:37;100699.06;;;6.58;100.00
71149;BME280;59072;42.144;25.200;2023-03-02T09:50:33;100695.13;;;6.77;100.00
71149;BME280;59072;42.144;25.200;2023-03-02T09:55:42;100684.75;;;6.44;100.00
71149;BME280;59072;42.144;25.200;2023-03-02T09:58:18;100677.72;;;6.60;100.00
71149;BME280;59072;42.144;25.200;2023-03-02T10:00:45;100687.59;;;6.66;100.00
71149;BME280;59072;42.144;25.200;2023-03-02T10:03:22;100671.81;;;6.73;100.00
71149;BME280;59072;42.144;25.200;2023-03-02T10:05:53;100685.88;;;6.50;100.00
71149;BME280;59072;42.144;25.200;2023-03-02T10:08:25;100673.69;;;6.41;100.00
71149;BME280;59072;42.144;25.200;2023-03-02T10:13:40;100685.25;;;6.86;100.00
71149;BME280;59072;42.144;25.200;2023-03-02T10:19:35;100686.66;;;6.59;100.00
71149;BME280;59072;42.144;25.200;2023-03-02T10:22:21;100674.00;;;6.46;100.00
71149;BME280;59072;42.144;25.200;2023-03-02T10:25:14;100680.34;;;6.60;100.00
71149;BME280;59072;42.144;25.200;2023-03-02T10:27:43;100677.50;;;6.61;100.00
71149;BME280;59072;42.144;25.200;2023-03-02T10:30:29;100683.38;;;6.72;100.00
71149;BME280;59072;42.144;25.200;2023-03-02T10:32:58;100677.81;;;6.67;100.00
71149;BME280;59072;42.144;25.200;2023-03-02T10:35:26;100650.03;;;6.77;100.00
71149;BME280;59072;42.144;25.200;2023-03-02T10:37:59;100667.81;;;6.92;100.00
71149;BME280;59072;42.144;25.200;2023-03-02T10:40:40;100662.91;;;7.18;100.00
71149;BME280;59072;42.144;25.200;2023-03-02T10:43:14;100662.59;;;6.83;100.00
71149;BME280;59072;42.144;25.200;2023-03-02T10:45:40;100653.72;;;6.76;100.00
71149;BME280;59072;42.144;25.200;2023-03-02T10:48:10;100642.59;;;6.58;100.00
71149;BME280;59072;42.144;25.200;2023-03-02T10:50:37;100653.72;;;6.76;100.00
71149;BME280;59072;42.144;25.200;2023-03-02T10:53:05;100649.16;;;6.85;100.00
71149;BME280;59072;42.144;25.200;2023-03-02T10:55:31;100648.84;;;6.80;100.00
71149;BME280;59072;42.144;25.200;2023-03-02T11:00:27;100641.44;;;6.75;100.00
71149;BME280;59072;42.144;25.200;2023-03-02T11:02:58;100634.50;;;6.74;100.00
71149;BME280;59072;42.144;25.200;2023-03-02T11:10:34;100632.63;;;6.98;100.00
71149;BME280;59072;42.144;25.200;2023-03-02T11:13:02;100627.41;;;6.90;100.00
71149;BME280;59072;42.144;25.200;2023-03-02T11:15:48;100638.22;;;7.03;100.00
71149;BME280;59072;42.144;25.200;2023-03-02T11:18:36;100627.22;;;7.06;100.00
71149;BME280;59072;42.144;25.200;2023-03-02T11:21:07;100608.44;;;6.78;100.00
71149;BME280;59072;42.144;25.200;2023-03-02T11:26:27;100619.91;;;7.08;100.00
71149;BME280;59072;42.144;25.200;2023-03-02T11:29:16;100617.16;;;7.16;100.00
71149;BME280;59072;42.144;25.200;2023-03-02T11:31:53;100598.06;;;6.76;100.00
71149;BME280;59072;42.144;25.200;2023-03-02T11:39:18;100606.25;;;6.67;100.00
71149;BME280;59072;42.144;25.200;2023-03-02T11:41:47;100606.16;;;6.60;100.00
71149;BME280;59072;42.144;25.200;2023-03-02T11:44:16;100597.16;;;6.46;100.00
71149;BME280;59072;42.144;25.200;2023-03-02T11:46:44;100600.97;;;6.43;100.00
71149;BME280;59072;42.144;25.200;2023-03-02T11:49:18;100603.63;;;6.81;100.00
71149;BME280;59072;42.144;25.200;2023-03-02T11:51:56;100587.16;;;6.71;100.00
71149;BME280;59072;42.144;25.200;2023-03-02T11:54:34;100596.88;;;6.94;100.00
71149;BME280;59072;42.144;25.200;2023-03-02T11:57:03;100587.06;;;6.64;100.00
71149;BME280;59072;42.144;25.200;2023-03-02T11:59:29;100591.53;;;6.64;100.00
71149;BME280;59072;42.144;25.200;2023-03-02T12:01:56;100601.53;;;6.77;100.00
71149;BME280;59072;42.144;25.200;2023-03-02T12:04:33;100617.00;;;7.03;100.00
71149;BME280;59072;42.144;25.200;2023-03-02T12:07:02;100594.38;;;6.77;100.00
71149;BME280;59072;42.144;25.200;2023-03-02T12:09:36;100591.88;;;6.61;100.00
71149;BME280;59072;42.144;25.200;2023-03-02T12:14:56;100610.44;;;6.61;100.00
71149;BME280;59072;42.144;25.200;2023-03-02T12:20:43;100615.63;;;6.54;100.00
71149;BME280;59072;42.144;25.200;2023-03-02T12:23:08;100593.66;;;6.46;100.00
71149;BME280;59072;42.144;25.200;2023-03-02T12:25:44;100583.22;;;6.67;100.00
71149;BME280;59072;42.144;25.200;2023-03-02T12:28:30;100604.72;;;6.72;100.00
71149;BME280;59072;42.144;25.200;2023-03-02T12:31:13;100610.09;;;6.64;100.00
71149;BME280;59072;42.144;25.200;2023-03-02T12:33:49;100594.38;;;6.62;100.00
71149;BME280;59072;42.144;25.200;2023-03-02T12:36:28;100600.22;;;6.73;100.00
71149;BME280;59072;42.144;25.200;2023-03-02T12:39:26;100614.28;;;6.73;100.00
71149;BME280;59072;42.144;25.200;2023-03-02T12:42:32;100592.69;;;6.61;100.00
71149;BME280;59072;42.144;25.200;2023-03-02T12:48:29;100608.75;;;6.98;100.00
71149;BME280;59072;42.144;25.200;2023-03-02T12:51:01;100603.84;;;6.57;100.00
71149;BME280;59072;42.144;25.200;2023-03-02T12:53:27;100604.84;;;6.56;100.00
71149;BME280;59072;42.144;25.200;2023-03-02T12:55:52;100593.31;;;6.87;100.00
71149;BME280;59072;42.144;25.200;2023-03-02T12:58:23;100597.41;;;6.74;100.00
71149;BME280;59072;42.144;25.200;2023-03-02T13:00:52;100597.09;;;6.69;100.00
71149;BME280;59072;42.144;25.200;2023-03-02T13:03:18;100603.63;;;6.81;100.00
71149;BME280;59072;42.144;25.200;2023-03-02T13:05:44;100577.56;;;6.85;100.00
71149;BME280;59072;42.144;25.200;2023-03-02T13:08:21;100566.03;;;6.78;100.00
71149;BME280;59072;42.144;25.200;2023-03-02T13:10:52;100589.06;;;6.77;100.00
71149;BME280;59072;42.144;25.200;2023-03-02T13:13:24;100577.66;;;6.77;100.00
71149;BME280;59072;42.144;25.200;2023-03-02T13:15:56;100572.44;;;6.69;100.00
71149;BME280;59072;42.144;25.200;2023-03-02T13:18:24;100546.50;;;6.64;100.00
71149;BME280;59072;42.144;25.200;2023-03-02T13:20:51;100547.84;;;6.90;100.00
71149;BME280;59072;42.144;25.200;2023-03-02T13:23:18;100567.38;;;6.59;100.00
71149;BME280;59072;42.144;25.200;2023-03-02T13:26:04;100561.84;;;6.69;100.00
71149;BME280;59072;42.144;25.200;2023-03-02T13:28:35;100572.25;;;6.70;100.00
71149;BME280;59072;42.144;25.200;2023-03-02T13:31:03;100575.91;;;6.69;100.00